Time;durP1;ratioP1;P1;durP2;ratioP2;P2;SDS_P1;SDS_P2;PMS_P1;PMS_P2;Temp;Humidity;BMP_temperature;BMP_pressure;BME280_temperature;BME280_humidity;BME280_pressure;Samples;Min_cycle;Max_cycle;Signal;HPM_P1;HPM_P2
2021/09/17 00:00:28;;;;;;;6.93;4.20;;;13.50;99.90;;;;;;5033003;28;20580;-72
2021/09/17 00:02:55;;;;;;;8.63;5.00;;;13.50;99.90;;;;;;5033696;28;20170;-72
2021/09/17 00:05:20;;;;;;;5.80;4.30;;;13.50;99.90;;;;;;5033878;28;20400;-72
2021/09/17 00:07:46;;;;;;;8.37;5.00;;;13.50;99.90;;;;;;5033792;28;20901;-72
2021/09/17 00:10:12;;;;;;;6.83;6.03;;;13.50;99.90;;;;;;5033350;28;20275;-72
2021/09/17 00:12:38;;;;;;;5.33;4.80;;;13.50;99.90;;;;;;5033829;28;20149;-72
2021/09/17 00:15:04;;;;;;;6.37;5.07;;;13.50;99.90;;;;;;5033599;28;20906;-72
2021/09/17 00:17:30;;;;;;;5.60;4.43;;;13.50;99.90;;;;;;5033848;28;20415;-72
2021/09/17 00:19:55;;;;;;;7.03;4.70;;;13.40;99.90;;;;;;5033241;28;20428;-72
2021/09/17 00:22:21;;;;;;;8.57;5.13;;;13.40;99.90;;;;;;5033868;28;20173;-72
2021/09/17 00:24:47;;;;;;;5.73;4.90;;;13.40;99.90;;;;;;5033686;28;20200;-72
2021/09/17 00:27:12;;;;;;;5.20;4.57;;;13.40;99.90;;;;;;5033637;28;20222;-72
2021/09/17 00:29:38;;;;;;;8.07;5.27;;;13.40;99.90;;;;;;5032607;28;20205;-72
2021/09/17 00:32:04;;;;;;;5.53;4.93;;;13.30;99.90;;;;;;5021731;28;20176;-72
2021/09/17 00:34:29;;;;;;;5.57;4.87;;;13.30;99.90;;;;;;5013580;28;20180;-72
2021/09/17 00:36:55;;;;;;;5.97;4.87;;;13.40;99.90;;;;;;5032380;28;20409;-72
2021/09/17 00:39:20;;;;;;;5.87;5.20;;;13.30;99.90;;;;;;5033437;28;20165;-72
2021/09/17 00:41:46;;;;;;;7.27;5.40;;;13.40;99.90;;;;;;5033343;28;20185;-72
2021/09/17 00:44:22;;;;;;;6.63;5.47;;;13.40;99.90;;;;;;5032999;28;20169;-72
2021/09/17 00:46:48;;;;;;;7.13;4.73;;;13.40;99.90;;;;;;5013390;28;20219;-72
2021/09/17 00:49:13;;;;;;;6.20;5.10;;;13.50;99.90;;;;;;5013307;28;20448;-72
2021/09/17 00:51:39;;;;;;;7.20;5.97;;;13.50;99.90;;;;;;5013856;28;20166;-72
2021/09/17 00:54:04;;;;;;;11.23;6.93;;;13.50;99.90;;;;;;5032970;28;20180;-72
2021/09/17 00:56:30;;;;;;;7.00;5.27;;;13.60;99.90;;;;;;5033426;28;20181;-72
2021/09/17 00:58:58;;;;;;;5.97;4.90;;;13.60;99.90;;;;;;5032718;28;20193;-72
2021/09/17 01:01:23;;;;;;;8.97;4.93;;;13.70;99.90;;;;;;5014318;28;20245;-72
2021/09/17 01:03:49;;;;;;;6.03;5.40;;;13.70;99.90;;;;;;5013469;28;20767;-72
2021/09/17 01:06:15;;;;;;;7.30;5.60;;;13.70;99.90;;;;;;5013045;28;20600;-72
2021/09/17 01:08:40;;;;;;;5.83;4.80;;;13.80;99.90;;;;;;5013753;28;20771;-72
2021/09/17 01:11:07;;;;;;;6.07;4.80;;;13.80;99.90;;;;;;5013074;28;20543;-72
2021/09/17 01:13:34;;;;;;;5.80;4.70;;;13.90;99.90;;;;;;5013089;28;20500;-72
2021/09/17 01:15:59;;;;;;;7.27;5.40;;;13.90;99.90;;;;;;5013112;28;20549;-72
2021/09/17 01:18:27;;;;;;;6.73;4.97;;;13.90;99.90;;;;;;5020016;28;20545;-72
2021/09/17 01:20:58;;;;;;;6.63;5.13;;;13.90;99.90;;;;;;5032719;28;20151;-72
2021/09/17 01:23:24;;;;;;;7.10;5.10;;;14.00;99.90;;;;;;5032621;28;20425;-72
2021/09/17 01:25:50;;;;;;;10.37;6.50;;;14.00;99.90;;;;;;5032807;28;20398;-72
2021/09/17 01:28:22;;;;;;;10.27;7.23;;;14.00;99.90;;;;;;5032749;28;20427;-72
2021/09/17 01:30:47;;;;;;;10.00;6.63;;;14.00;99.90;;;;;;5031992;28;20294;-72
2021/09/17 01:33:13;;;;;;;7.47;5.97;;;14.10;99.90;;;;;;5032670;28;20477;-72
2021/09/17 01:35:38;;;;;;;13.17;6.00;;;14.10;99.90;;;;;;5032692;28;20170;-72
2021/09/17 01:38:04;;;;;;;6.20;4.73;;;14.10;99.90;;;;;;5032694;28;20156;-72
2021/09/17 01:40:29;;;;;;;5.53;4.93;;;14.10;99.90;;;;;;5032594;28;20624;-72
2021/09/17 01:42:55;;;;;;;7.20;5.13;;;14.10;99.90;;;;;;5032377;28;20174;-72
2021/09/17 01:45:21;;;;;;;7.37;5.33;;;14.10;99.90;;;;;;5032341;28;20650;-72
2021/09/17 01:47:46;;;;;;;6.87;4.50;;;14.10;99.90;;;;;;5017463;28;20535;-72
2021/09/17 01:50:12;;;;;;;5.73;5.10;;;14.20;99.90;;;;;;5012752;28;20441;-72
2021/09/17 01:52:38;;;;;;;8.37;5.00;;;14.20;99.90;;;;;;5012937;28;20152;-72
2021/09/17 01:55:04;;;;;;;7.60;5.20;;;14.20;99.90;;;;;;5013095;28;20632;-72
2021/09/17 01:57:30;;;;;;;8.40;5.27;;;14.20;99.90;;;;;;5012464;28;20693;-72
2021/09/17 01:59:56;;;;;;;12.10;6.00;;;14.20;99.90;;;;;;5023780;28;20444;-72
2021/09/17 02:02:21;;;;;;;7.87;5.40;;;14.20;99.90;;;;;;5031952;28;20600;-72
2021/09/17 02:04:47;;;;;;;10.13;5.33;;;14.30;99.90;;;;;;5032458;28;20169;-72
2021/09/17 02:07:12;;;;;;;5.57;4.87;;;14.30;99.90;;;;;;5032484;28;20166;-72
2021/09/17 02:09:39;;;;;;;6.10;5.13;;;14.30;99.90;;;;;;5032333;28;20574;-72
2021/09/17 02:12:05;;;;;;;8.13;5.50;;;14.30;99.90;;;;;;5032367;28;20521;-72
2021/09/17 02:14:31;;;;;;;15.60;6.70;;;14.30;99.90;;;;;;5032318;28;20405;-72
2021/09/17 02:16:56;;;;;;;8.10;5.10;;;14.30;99.90;;;;;;5033434;28;20876;-72
2021/09/17 02:19:22;;;;;;;7.73;5.13;;;14.30;99.90;;;;;;5035755;28;20529;-72
2021/09/17 02:21:50;;;;;;;8.10;5.63;;;14.30;99.90;;;;;;5035963;28;20246;-72
2021/09/17 02:24:16;;;;;;;6.97;5.37;;;14.30;99.90;;;;;;5036006;28;20158;-72
2021/09/17 02:26:42;;;;;;;7.47;5.67;;;14.30;99.90;;;;;;5035556;28;20410;-72
2021/09/17 02:29:08;;;;;;;8.77;6.00;;;14.30;99.90;;;;;;5034853;28;20508;-72
2021/09/17 02:31:34;;;;;;;12.37;5.47;;;14.30;99.90;;;;;;5022285;28;20168;-72
2021/09/17 02:33:59;;;;;;;6.80;5.80;;;14.30;99.90;;;;;;5019026;28;20499;-72
2021/09/17 02:36:25;;;;;;;6.00;5.10;;;14.30;99.90;;;;;;5035402;28;20186;-72
2021/09/17 02:38:50;;;;;;;5.93;5.33;;;14.30;99.90;;;;;;5035802;28;20577;-72
2021/09/17 02:41:16;;;;;;;8.27;6.63;;;14.30;99.90;;;;;;5035488;28;20238;-72
2021/09/17 02:43:41;;;;;;;14.80;6.40;;;14.30;99.90;;;;;;5035308;28;20156;-72
2021/09/17 02:46:07;;;;;;;7.93;6.20;;;14.30;99.90;;;;;;5035289;28;20575;-72
2021/09/17 02:48:32;;;;;;;8.97;7.10;;;14.30;99.90;;;;;;5026415;28;20268;-72
2021/09/17 02:50:58;;;;;;;7.70;6.30;;;14.40;99.90;;;;;;5018643;28;20302;-72
2021/09/17 02:53:24;;;;;;;8.40;6.13;;;14.40;99.90;;;;;;5035474;28;20163;-72
2021/09/17 02:55:49;;;;;;;10.07;6.80;;;14.40;99.90;;;;;;5035702;28;20166;-69
2021/09/17 02:58:15;;;;;;;9.57;5.63;;;14.40;99.90;;;;;;5035848;28;20612;-70
2021/09/17 03:00:41;;;;;;;6.90;5.77;;;14.40;99.90;;;;;;5034196;28;20172;-69
2021/09/17 03:03:08;;;;;;;8.10;5.53;;;14.40;99.90;;;;;;5035175;28;20581;-69
2021/09/17 03:05:34;;;;;;;9.90;6.23;;;14.40;99.90;;;;;;5034903;28;20424;-69
2021/09/17 03:07:59;;;;;;;8.30;5.70;;;14.40;99.90;;;;;;5034863;28;20500;-69
2021/09/17 03:10:25;;;;;;;8.70;6.33;;;14.40;99.90;;;;;;5034755;28;20230;-69
2021/09/17 03:12:50;;;;;;;10.30;6.57;;;14.50;99.90;;;;;;5034749;28;20525;-69
2021/09/17 03:15:16;;;;;;;7.17;5.87;;;14.50;99.90;;;;;;5034842;28;20169;-69
2021/09/17 03:17:42;;;;;;;8.60;6.23;;;14.50;99.90;;;;;;5034395;28;20185;-69
2021/09/17 03:20:08;;;;;;;6.73;5.30;;;14.50;99.90;;;;;;5034464;28;20188;-69
2021/09/17 03:22:34;;;;;;;10.30;6.63;;;14.50;99.90;;;;;;5034786;28;20595;-70
2021/09/17 03:24:59;;;;;;;8.07;5.60;;;14.50;99.90;;;;;;5034593;28;20473;-69
2021/09/17 03:27:25;;;;;;;7.20;5.60;;;14.50;99.90;;;;;;5034699;28;20624;-69
2021/09/17 03:29:50;;;;;;;6.73;5.80;;;14.50;99.90;;;;;;5034598;28;20195;-69
2021/09/17 03:32:16;;;;;;;7.43;6.10;;;14.50;99.90;;;;;;5034579;28;20659;-69
2021/09/17 03:34:44;;;;;;;8.50;6.03;;;14.50;99.90;;;;;;5034462;28;20173;-69
2021/09/17 03:37:10;;;;;;;9.43;5.90;;;14.50;99.90;;;;;;5034423;28;20217;-69
2021/09/17 03:39:35;;;;;;;7.80;5.50;;;14.50;99.90;;;;;;5034609;28;20395;-69
2021/09/17 03:42:01;;;;;;;10.53;6.17;;;14.50;99.90;;;;;;5034269;28;20187;-69
2021/09/17 03:44:27;;;;;;;7.80;5.90;;;14.50;99.90;;;;;;5025570;28;20178;-69
2021/09/17 03:46:53;;;;;;;6.90;5.63;;;14.50;99.90;;;;;;5030725;28;20294;-69
2021/09/17 03:49:19;;;;;;;7.53;5.37;;;14.50;99.90;;;;;;5030184;28;20458;-69
2021/09/17 03:51:45;;;;;;;8.80;6.60;;;14.50;99.90;;;;;;5032368;28;20938;-70
2021/09/17 03:54:10;;;;;;;9.80;6.90;;;14.50;99.90;;;;;;5033939;28;20181;-69
2021/09/17 03:56:36;;;;;;;11.30;6.80;;;14.50;99.90;;;;;;5033948;28;20609;-69
2021/09/17 03:59:01;;;;;;;12.53;7.37;;;14.50;99.90;;;;;;5033450;28;20596;-69
2021/09/17 04:01:27;;;;;;;9.57;6.57;;;14.50;99.90;;;;;;5034039;28;20175;-69
2021/09/17 04:03:52;;;;;;;7.50;5.90;;;14.60;99.90;;;;;;5033741;28;20188;-69
2021/09/17 04:06:18;;;;;;;11.60;7.50;;;14.60;99.90;;;;;;5026451;28;20181;-69
2021/09/17 04:08:43;;;;;;;8.07;6.60;;;14.50;99.90;;;;;;5027309;28;20198;-70
2021/09/17 04:11:09;;;;;;;9.20;7.20;;;14.60;99.90;;;;;;5030255;28;20690;-69
2021/09/17 04:13:34;;;;;;;9.97;7.20;;;14.60;99.90;;;;;;5013840;28;20167;-69
2021/09/17 04:16:00;;;;;;;10.10;7.80;;;14.60;99.90;;;;;;5020282;28;20230;-70
2021/09/17 04:18:25;;;;;;;8.43;6.83;;;14.60;99.90;;;;;;5030983;28;20164;-70
2021/09/17 04:20:51;;;;;;;9.93;7.90;;;14.60;99.90;;;;;;5033377;28;20174;-70
2021/09/17 04:23:16;;;;;;;11.80;8.60;;;14.60;99.90;;;;;;5034000;28;20237;-70
2021/09/17 04:25:42;;;;;;;10.40;8.30;;;14.60;99.90;;;;;;5033230;28;20266;-69
2021/09/17 04:28:07;;;;;;;7.80;7.00;;;14.60;99.90;;;;;;5033030;28;20189;-69
2021/09/17 04:30:34;;;;;;;11.07;7.80;;;14.60;99.90;;;;;;5028155;28;20202;-70
2021/09/17 04:33:00;;;;;;;12.83;8.73;;;14.60;99.90;;;;;;5024219;28;20183;-70
2021/09/17 04:35:26;;;;;;;10.07;8.27;;;14.60;99.90;;;;;;5033083;28;20395;-69
2021/09/17 04:37:56;;;;;;;12.70;8.23;;;14.60;99.90;;;;;;5033270;28;20409;-67
2021/09/17 04:40:23;;;;;;;11.03;8.97;;;14.60;99.90;;;;;;5013083;28;20770;-69
2021/09/17 04:42:49;;;;;;;12.23;8.03;;;14.60;99.90;;;;;;5027789;28;20797;-69
2021/09/17 04:45:14;;;;;;;15.50;9.00;;;14.60;99.90;;;;;;5031901;28;20465;-69
2021/09/17 04:47:40;;;;;;;13.50;9.57;;;14.60;99.90;;;;;;5032024;28;20241;-69
2021/09/17 04:50:07;;;;;;;13.63;8.83;;;14.60;99.90;;;;;;5031912;28;20249;-69
2021/09/17 04:52:33;;;;;;;12.30;9.67;;;14.60;99.90;;;;;;5031884;28;20190;-69
2021/09/17 04:54:59;;;;;;;12.00;9.40;;;14.60;99.90;;;;;;5031091;28;20486;-69
2021/09/17 04:57:26;;;;;;;13.67;9.20;;;14.60;99.90;;;;;;5032480;28;20252;-69
2021/09/17 04:59:52;;;;;;;13.53;10.10;;;14.60;99.90;;;;;;5032555;28;20442;-69
2021/09/17 05:02:18;;;;;;;12.87;9.90;;;14.70;99.90;;;;;;5029104;28;20903;-69
2021/09/17 05:04:43;;;;;;;14.17;9.93;;;14.70;99.90;;;;;;5019774;28;20475;-69
2021/09/17 05:07:11;;;;;;;12.47;10.03;;;14.70;99.90;;;;;;5029912;28;20184;-69
2021/09/17 05:09:37;;;;;;;15.83;10.30;;;14.70;99.90;;;;;;5029557;28;20219;-69
2021/09/17 05:12:03;;;;;;;13.20;8.83;;;14.70;99.90;;;;;;5031973;28;20433;-69
2021/09/17 05:14:28;;;;;;;13.00;10.00;;;14.70;99.90;;;;;;5029546;28;20940;-69
2021/09/17 05:16:54;;;;;;;10.53;9.20;;;14.70;99.90;;;;;;5032293;28;20421;-69
2021/09/17 05:19:23;;;;;;;14.47;9.90;;;14.70;99.90;;;;;;5031591;28;20183;-69
2021/09/17 05:21:50;;;;;;;10.60;9.07;;;14.70;99.90;;;;;;5032199;28;20573;-69
2021/09/17 05:24:16;;;;;;;12.03;9.87;;;14.70;99.90;;;;;;5032448;28;20433;-69
2021/09/17 05:26:41;;;;;;;12.50;9.27;;;14.70;99.90;;;;;;5032937;28;20403;-69
2021/09/17 05:29:07;;;;;;;16.30;9.97;;;14.80;99.90;;;;;;5032705;28;20614;-69
2021/09/17 05:31:32;;;;;;;14.13;10.37;;;14.80;99.90;;;;;;5032177;28;20172;-69
2021/09/17 05:33:58;;;;;;;16.00;11.10;;;14.80;99.90;;;;;;5031352;28;20199;-69
2021/09/17 05:36:23;;;;;;;15.97;12.10;;;14.80;99.90;;;;;;5029583;28;20255;-69
2021/09/17 05:38:49;;;;;;;15.40;11.10;;;14.80;99.90;;;;;;5032334;28;20199;-69
2021/09/17 05:41:15;;;;;;;14.90;10.50;;;14.80;99.90;;;;;;5029092;28;20602;-69
2021/09/17 05:43:40;;;;;;;14.07;10.33;;;14.80;99.90;;;;;;5030679;28;20222;-69
2021/09/17 05:46:06;;;;;;;12.20;10.57;;;14.80;99.90;;;;;;5031439;28;20246;-69
2021/09/17 05:48:32;;;;;;;18.40;12.37;;;14.90;99.90;;;;;;5031884;28;20708;-70
2021/09/17 05:50:57;;;;;;;18.77;11.80;;;14.90;99.90;;;;;;5032273;28;20540;-69
2021/09/17 05:53:23;;;;;;;16.23;14.00;;;14.90;99.90;;;;;;5035594;28;20156;-69
2021/09/17 05:55:48;;;;;;;16.20;12.97;;;14.90;99.90;;;;;;5035570;28;20175;-70
2021/09/17 05:58:14;;;;;;;19.50;13.70;;;15.00;99.90;;;;;;5035348;28;20245;-69
2021/09/17 06:00:39;;;;;;;21.43;13.80;;;15.00;99.90;;;;;;5036186;28;20175;-69
2021/09/17 06:03:05;;;;;;;20.40;14.30;;;15.00;99.90;;;;;;5036162;28;20180;-69
2021/09/17 06:05:30;;;;;;;18.43;13.27;;;15.00;99.90;;;;;;5021094;28;20185;-69
2021/09/17 06:07:56;;;;;;;23.10;13.17;;;15.00;99.90;;;;;;5015282;28;20536;-69
2021/09/17 06:10:22;;;;;;;23.80;13.23;;;15.10;99.90;;;;;;5016274;28;20219;-69
2021/09/17 06:12:47;;;;;;;21.87;14.30;;;15.10;99.90;;;;;;5016494;28;20164;-69
2021/09/17 06:15:16;;;;;;;22.07;14.67;;;15.10;99.90;;;;;;5032936;28;20578;-69
2021/09/17 06:17:43;;;;;;;21.30;15.03;;;15.20;99.90;;;;;;5035213;28;20173;-69
2021/09/17 06:20:10;;;;;;;23.40;15.30;;;15.20;99.90;;;;;;5025664;28;20420;-69
2021/09/17 06:22:36;;;;;;;21.37;14.47;;;15.30;99.90;;;;;;5015711;28;20412;-69
2021/09/17 06:25:02;;;;;;;23.60;16.20;;;15.30;99.90;;;;;;5015702;28;20384;-69
2021/09/17 06:27:28;;;;;;;24.50;15.77;;;15.30;99.90;;;;;;5030283;28;20422;-69
2021/09/17 06:29:53;;;;;;;27.57;17.67;;;15.40;99.90;;;;;;5034199;28;20459;-70
2021/09/17 06:32:19;;;;;;;22.37;15.93;;;15.40;99.90;;;;;;5033845;28;20184;-69
2021/09/17 06:34:44;;;;;;;26.90;16.50;;;15.40;99.90;;;;;;5034990;28;20230;-69
2021/09/17 06:37:10;;;;;;;24.07;15.67;;;15.50;99.90;;;;;;5033395;28;20196;-70
2021/09/17 06:39:36;;;;;;;25.50;17.70;;;15.50;99.90;;;;;;5033299;28;20657;-69
2021/09/17 06:42:01;;;;;;;29.60;18.73;;;15.60;99.90;;;;;;5033185;28;20939;-69
2021/09/17 06:44:28;;;;;;;25.43;16.40;;;15.60;99.90;;;;;;5034173;28;20169;-69
2021/09/17 06:46:53;;;;;;;23.73;18.13;;;15.60;99.90;;;;;;5034735;28;20620;-69
2021/09/17 06:49:19;;;;;;;26.87;18.43;;;15.70;99.90;;;;;;5033491;28;20555;-70
2021/09/17 06:51:44;;;;;;;26.90;18.30;;;15.80;99.90;;;;;;5035256;28;20541;-70
2021/09/17 06:54:10;;;;;;;35.60;21.93;;;15.80;99.90;;;;;;5035006;28;20288;-69
2021/09/17 06:56:36;;;;;;;29.53;22.00;;;15.90;99.90;;;;;;5034836;28;20165;-70
2021/09/17 06:59:02;;;;;;;32.20;22.37;;;16.00;99.90;;;;;;5033125;28;20224;-69
2021/09/17 07:01:27;;;;;;;34.80;23.33;;;16.10;99.90;;;;;;5032916;28;20251;-70
2021/09/17 07:03:53;;;;;;;35.73;24.10;;;16.10;99.90;;;;;;5034713;28;20173;-70
2021/09/17 07:06:18;;;;;;;32.07;23.80;;;16.20;99.90;;;;;;5034782;28;20818;-69
2021/09/17 07:08:44;;;;;;;35.03;24.30;;;16.20;99.90;;;;;;5031835;28;20188;-69
2021/09/17 07:11:09;;;;;;;33.17;22.40;;;16.40;99.90;;;;;;5020305;28;20201;-70
2021/09/17 07:13:35;;;;;;;34.03;22.87;;;16.40;99.90;;;;;;5019983;28;20185;-70
2021/09/17 07:16:00;;;;;;;37.03;24.73;;;16.50;99.90;;;;;;5021432;28;20180;-70
2021/09/17 07:18:27;;;;;;;35.13;22.60;;;16.70;99.90;;;;;;5019393;28;20181;-70
2021/09/17 07:20:54;;;;;;;37.67;23.00;;;16.80;99.90;;;;;;5019829;28;20168;-70
2021/09/17 07:23:20;;;;;;;32.63;22.03;;;16.90;99.90;;;;;;5020509;28;20500;-70
2021/09/17 07:25:46;;;;;;;32.13;23.50;;;17.10;99.90;;;;;;5020909;28;20416;-70
2021/09/17 07:28:11;;;;;;;35.33;22.23;;;17.10;99.90;;;;;;5020672;28;20560;-70
2021/09/17 07:30:37;;;;;;;31.53;24.77;;;17.20;99.90;;;;;;5020526;28;21042;-70
2021/09/17 07:33:03;;;;;;;32.33;22.90;;;17.30;99.90;;;;;;5020390;28;20173;-70
2021/09/17 07:35:29;;;;;;;31.53;21.80;;;17.40;99.90;;;;;;5019965;28;20188;-70
2021/09/17 07:37:54;;;;;;;33.13;23.70;;;17.40;99.90;;;;;;5019593;28;20662;-70
2021/09/17 07:40:21;;;;;;;32.07;22.23;;;17.50;99.90;;;;;;5019135;28;20534;-70
2021/09/17 07:42:48;;;;;;;30.27;22.60;;;17.60;99.90;;;;;;5019068;28;20212;-70
2021/09/17 07:45:15;;;;;;;31.03;22.47;;;17.60;99.90;;;;;;5018845;28;20427;-70
2021/09/17 07:47:40;;;;;;;29.47;21.67;;;17.70;99.90;;;;;;5019469;28;20545;-70
2021/09/17 07:50:08;;;;;;;30.97;20.67;;;17.70;99.90;;;;;;5017644;28;20907;-70
2021/09/17 07:52:34;;;;;;;31.10;21.47;;;17.80;99.90;;;;;;5019442;28;20623;-70
2021/09/17 07:55:00;;;;;;;29.80;22.10;;;17.90;99.90;;;;;;5019566;28;20416;-70
2021/09/17 07:57:25;;;;;;;30.43;20.10;;;18.00;99.90;;;;;;5019228;28;20176;-70
2021/09/17 07:59:51;;;;;;;30.03;20.90;;;18.20;99.90;;;;;;5019074;28;20267;-70
2021/09/17 08:02:16;;;;;;;31.50;20.77;;;18.30;99.90;;;;;;5018649;28;20180;-70
2021/09/17 08:04:42;;;;;;;29.63;21.03;;;18.30;99.90;;;;;;5019345;28;20177;-70
2021/09/17 08:07:08;;;;;;;30.97;19.37;;;18.40;99.90;;;;;;5019173;28;20205;-70
2021/09/17 08:09:35;;;;;;;29.70;20.90;;;18.40;99.90;;;;;;5017991;28;20208;-70
2021/09/17 08:12:00;;;;;;;28.10;19.27;;;18.60;99.90;;;;;;5017550;28;20431;-70
2021/09/17 08:14:26;;;;;;;28.63;20.07;;;18.70;99.90;;;;;;5018758;28;20940;-70
2021/09/17 08:16:52;;;;;;;25.67;18.40;;;18.80;99.90;;;;;;5017974;28;20198;-70
2021/09/17 08:19:17;;;;;;;27.70;19.03;;;18.90;99.90;;;;;;5014469;28;20181;-70
2021/09/17 08:21:43;;;;;;;27.47;18.53;;;19.10;99.90;;;;;;5016248;28;20634;-70
2021/09/17 08:24:14;;;;;;;26.80;16.90;;;19.20;99.90;;;;;;5016755;28;20210;-71
2021/09/17 08:26:41;;;;;;;27.33;19.47;;;19.20;99.90;;;;;;5017976;28;20177;-71
2021/09/17 08:29:07;;;;;;;29.73;20.37;;;19.30;99.90;;;;;;5018815;28;20424;-70
2021/09/17 08:31:32;;;;;;;32.93;19.80;;;19.40;99.90;;;;;;5017997;28;20470;-70
2021/09/17 08:33:58;;;;;;;31.77;18.90;;;19.50;99.90;;;;;;5019209;28;20263;-70
2021/09/17 08:36:23;;;;;;;27.27;19.63;;;19.50;99.90;;;;;;5018977;28;20176;-70
2021/09/17 08:38:52;;;;;;;22.57;18.10;;;19.40;99.90;;;;;;5019877;28;20188;-70
2021/09/17 08:41:18;;;;;;;30.00;18.60;;;19.40;99.90;;;;;;5019819;28;20238;-70
2021/09/17 08:43:44;;;;;;;26.30;19.43;;;19.40;99.90;;;;;;5019346;28;20412;-70
2021/09/17 08:46:13;;;;;;;27.57;20.13;;;19.50;99.90;;;;;;5019253;28;20462;-70
2021/09/17 08:48:41;;;;;;;31.13;20.93;;;19.50;99.90;;;;;;5017314;28;20181;-70
2021/09/17 08:51:06;;;;;;;27.57;18.87;;;19.60;99.90;;;;;;5017352;28;20455;-70
2021/09/17 08:53:32;;;;;;;29.30;20.50;;;19.70;99.90;;;;;;5007666;28;20900;-70
2021/09/17 08:55:58;;;;;;;27.57;19.30;;;19.70;99.90;;;;;;5021699;28;20189;-70
2021/09/17 08:58:23;;;;;;;23.93;17.93;;;19.60;99.90;;;;;;5021176;28;20189;-70
2021/09/17 09:00:49;;;;;;;28.73;19.80;;;19.60;99.90;;;;;;5017312;28;20661;-70
2021/09/17 09:03:35;;;;;;;25.93;17.03;;;19.60;99.90;;;;;;5016389;28;20535;-70
2021/09/17 09:06:16;;;;;;;26.57;17.90;;;19.60;99.90;;;;;;5016987;28;20176;-70
2021/09/17 09:08:43;;;;;;;29.90;18.53;;;19.60;99.90;;;;;;5014118;28;20524;-70
2021/09/17 09:11:25;;;;;;;25.80;19.37;;;19.60;99.90;;;;;;5014796;28;20622;-70
2021/09/17 09:14:09;;;;;;;28.30;18.30;;;19.70;99.90;;;;;;5017069;28;20433;-70
2021/09/17 09:16:37;;;;;;;27.77;19.13;;;19.70;99.90;;;;;;5015352;28;20951;-70
2021/09/17 09:19:28;;;;;;;23.80;17.17;;;19.80;99.90;;;;;;5015906;28;20435;-70
2021/09/17 09:22:11;;;;;;;22.63;16.10;;;19.90;99.90;;;;;;5017704;28;20514;-70
2021/09/17 09:24:40;;;;;;;23.30;15.17;;;20.00;99.90;;;;;;5018248;28;20427;-70
2021/09/17 09:29:46;;;;;;;22.60;16.33;;;20.30;99.90;;;;;;5141018;27;20523;-69
2021/09/17 09:35:07;;;;;;;22.17;16.63;;;20.60;99.90;;;;;;5034619;28;20534;-69
2021/09/17 09:37:37;;;;;;;20.57;15.70;;;20.60;99.90;;;;;;5035432;28;20435;-69
2021/09/17 09:40:14;;;;;;;28.03;15.97;;;20.60;99.90;;;;;;5035991;28;20423;-69
2021/09/17 09:42:42;;;;;;;22.40;15.77;;;20.70;99.90;;;;;;5036165;28;20469;-69
2021/09/17 09:50:27;;;;;;;18.67;13.37;;;20.70;99.90;;;;;;5075552;27;20659;-69
2021/09/17 09:52:57;;;;;;;26.30;15.10;;;20.90;99.90;;;;;;5075403;28;20409;-70
2021/09/17 09:55:23;;;;;;;20.07;14.17;;;21.00;99.90;;;;;;5076299;28;20412;-69
2021/09/17 09:57:49;;;;;;;18.60;14.70;;;21.10;99.90;;;;;;5076148;28;20835;-70
2021/09/17 10:00:15;;;;;;;20.73;15.13;;;21.20;99.90;;;;;;5075969;28;20441;-70
2021/09/17 10:02:44;;;;;;;15.93;12.67;;;21.20;99.90;;;;;;5075500;28;20500;-69
2021/09/17 10:05:12;;;;;;;17.00;11.90;;;21.30;99.90;;;;;;5075941;28;20401;-70
2021/09/17 10:07:39;;;;;;;11.80;8.53;;;21.40;99.90;;;;;;5076709;28;20828;-70
2021/09/17 10:10:07;;;;;;;12.87;7.80;;;21.60;99.90;;;;;;5076611;28;20594;-70
2021/09/17 10:12:33;;;;;;;13.73;8.50;;;21.60;99.90;;;;;;5077399;28;20397;-70
2021/09/17 10:14:59;;;;;;;11.43;7.07;;;21.70;99.90;;;;;;5077215;28;20936;-70
2021/09/17 10:17:28;;;;;;;9.07;6.20;;;21.70;99.90;;;;;;5075740;28;20179;-70
2021/09/17 10:19:56;;;;;;;6.60;5.90;;;21.80;99.90;;;;;;5075980;28;20463;-70
2021/09/17 10:22:40;;;;;;;8.37;7.33;;;21.90;99.90;;;;;;5076409;28;20397;-70
2021/09/17 10:28:00;;;;;;;7.93;6.60;;;22.00;99.90;;;;;;5056501;28;20539;-70
2021/09/17 10:30:30;;;;;;;9.60;7.47;;;22.00;99.90;;;;;;5056112;28;20475;-70
2021/09/17 10:32:56;;;;;;;11.83;7.37;;;22.00;99.90;;;;;;5056194;28;20795;-70
2021/09/17 10:35:25;;;;;;;10.30;7.47;;;22.00;99.90;;;;;;5056512;28;20406;-70
2021/09/17 10:43:47;;;;;;;5.60;5.10;;;22.00;99.90;;;;;;5094898;27;20525;-70
2021/09/17 10:48:57;;;;;;;5.47;4.40;;;22.00;99.90;;;;;;5056511;28;20528;-70
2021/09/17 10:51:40;;;;;;;5.80;4.43;;;22.10;99.90;;;;;;5055726;28;20456;-70
2021/09/17 10:54:10;;;;;;;6.63;4.90;;;22.10;99.90;;;;;;5056772;28;20398;-70
2021/09/17 10:59:40;;;;;;;6.77;5.07;;;22.10;99.90;;;;;;5103108;27;20537;-69
2021/09/17 11:02:08;;;;;;;6.00;5.07;;;22.30;99.90;;;;;;5102360;27;22135;-69
2021/09/17 11:04:37;;;;;;;6.27;5.27;;;22.30;99.90;;;;;;5104736;28;20423;-69
2021/09/17 11:10:00;;;;;;;9.80;5.80;;;22.30;99.90;;;;;;5056876;28;20520;-70
2021/09/17 11:12:28;;;;;;;7.47;6.13;;;22.40;99.90;;;;;;5056108;28;20406;-70
2021/09/17 11:17:40;;;;;;;5.73;4.70;;;22.40;99.90;;;;;;5056772;28;20524;-69
2021/09/17 11:20:08;;;;;;;7.00;5.77;;;22.40;99.90;;;;;;5055327;28;20440;-69
2021/09/17 11:22:48;;;;;;;6.83;5.70;;;22.50;99.90;;;;;;5056778;28;20409;-69
2021/09/17 11:25:20;;;;;;;7.80;6.23;;;22.60;99.90;;;;;;5055548;28;20475;-69
2021/09/17 11:27:45;;;;;;;11.20;6.77;;;22.60;99.90;;;;;;5055905;28;20418;-69
2021/09/17 11:30:11;;;;;;;11.50;7.00;;;22.70;99.90;;;;;;5055258;28;20421;-69
2021/09/17 11:32:38;;;;;;;8.70;6.43;;;22.70;99.90;;;;;;5054838;28;20176;-69
2021/09/17 11:35:07;;;;;;;9.67;7.10;;;22.80;99.90;;;;;;5056907;28;20406;-69
2021/09/17 11:37:33;;;;;;;9.03;7.20;;;22.80;99.90;;;;;;5055456;28;20445;-69
2021/09/17 11:40:08;;;;;;;6.93;5.80;;;22.80;99.90;;;;;;5057131;28;20414;-69
2021/09/17 11:42:34;;;;;;;7.30;6.30;;;22.80;99.90;;;;;;5056188;28;20167;-69
2021/09/17 11:45:11;;;;;;;11.13;6.63;;;22.70;99.90;;;;;;5054021;28;20440;-69
2021/09/17 11:47:37;;;;;;;10.23;7.80;;;22.60;99.90;;;;;;5055618;28;20444;-69
2021/09/17 11:50:06;;;;;;;9.60;6.73;;;22.50;99.90;;;;;;5055028;28;21007;-69
2021/09/17 11:52:40;;;;;;;9.80;7.53;;;22.50;99.90;;;;;;5054283;28;20418;-69
2021/09/17 11:57:45;;;;;;;10.50;8.07;;;22.40;99.90;;;;;;5056184;28;20961;-70
2021/09/17 12:02:52;;;;;;;12.03;8.83;;;22.10;99.90;;;;;;5097108;27;20572;-70
2021/09/17 12:05:21;;;;;;;10.40;8.00;;;22.00;99.90;;;;;;5096985;28;20395;-70
2021/09/17 12:07:51;;;;;;;10.87;9.17;;;21.90;99.90;;;;;;5097434;28;20430;-70
2021/09/17 12:10:20;;;;;;;13.17;10.57;;;21.80;99.90;;;;;;5096634;28;20404;-70
2021/09/17 12:12:47;;;;;;;13.27;10.87;;;21.80;99.90;;;;;;5094624;28;20440;-70
2021/09/17 12:15:25;;;;;;;13.07;9.90;;;21.90;99.90;;;;;;5095595;28;20396;-70
2021/09/17 12:17:53;;;;;;;14.93;10.47;;;21.90;99.90;;;;;;5096668;28;20901;-70
2021/09/17 12:20:19;;;;;;;15.17;11.83;;;21.90;99.90;;;;;;5096720;28;20396;-70
2021/09/17 12:22:56;;;;;;;16.20;11.53;;;21.90;99.90;;;;;;5097486;28;20419;-70
2021/09/17 12:25:28;;;;;;;16.83;14.50;;;21.80;99.90;;;;;;5096293;28;20445;-70
2021/09/17 12:27:58;;;;;;;16.57;13.03;;;21.60;99.90;;;;;;5096047;28;20439;-70
2021/09/17 12:30:30;;;;;;;14.37;12.03;;;21.50;99.90;;;;;;5096633;28;20438;-70
2021/09/17 12:33:15;;;;;;;18.30;11.50;;;21.40;99.90;;;;;;5097090;28;20499;-70
2021/09/17 12:35:43;;;;;;;16.70;12.50;;;21.30;99.90;;;;;;5096849;28;20419;-70
2021/09/17 12:38:10;;;;;;;17.53;12.23;;;21.20;99.90;;;;;;5097330;28;20400;-70
2021/09/17 12:40:39;;;;;;;14.40;12.87;;;21.10;99.90;;;;;;5096604;28;20415;-70
2021/09/17 12:43:08;;;;;;;12.60;10.63;;;21.10;99.90;;;;;;5096947;28;20429;-70
2021/09/17 12:45:36;;;;;;;15.63;12.03;;;21.00;99.90;;;;;;5096875;28;20422;-70
2021/09/17 12:48:04;;;;;;;13.03;9.83;;;21.00;99.90;;;;;;5095921;28;20494;-70
2021/09/17 12:50:41;;;;;;;15.73;11.70;;;20.90;99.90;;;;;;5095343;28;20831;-70
2021/09/17 12:55:46;;;;;;;16.70;14.10;;;20.90;99.90;;;;;;5095289;27;20563;-70
2021/09/17 12:58:17;;;;;;;17.73;15.67;;;20.70;99.90;;;;;;5110479;28;20388;-69
2021/09/17 13:00:47;;;;;;;15.67;12.90;;;20.70;99.90;;;;;;5104273;28;20408;-69
2021/09/17 13:03:13;;;;;;;14.87;12.37;;;20.80;99.90;;;;;;5085376;28;20478;-70
2021/09/17 13:05:41;;;;;;;13.00;10.70;;;20.90;99.90;;;;;;5070634;28;20412;-70
2021/09/17 13:08:07;;;;;;;14.93;11.17;;;21.10;99.90;;;;;;5070295;28;20393;-69
2021/09/17 13:10:37;;;;;;;16.00;10.23;;;21.20;99.90;;;;;;5069928;28;20447;-70
2021/09/17 13:13:04;;;;;;;14.67;12.20;;;21.30;99.90;;;;;;5070299;28;20389;-70